createdAt,value
2023-04-25T14:41:26.047Z,43.28
2023-04-25T14:43:54.133Z,44.43
2023-04-25T14:46:21.898Z,44.00
2023-04-25T14:48:48.718Z,43.74
2023-04-25T14:51:15.379Z,44.24
2023-04-25T14:53:42.305Z,45.04
2023-04-25T14:56:09.944Z,44.79
2023-04-25T14:58:36.610Z,44.39
2023-04-25T15:01:03.379Z,44.70
2023-04-25T15:03:30.396Z,44.34
2023-04-25T15:05:57.137Z,44.61
2023-04-25T15:08:23.779Z,44.35
2023-04-25T15:10:50.686Z,45.26
2023-04-25T15:13:20.221Z,45.47
2023-04-25T15:15:52.224Z,45.23
2023-04-25T15:18:23.182Z,44.83
2023-04-25T15:20:51.019Z,43.62
2023-04-25T15:23:18.980Z,44.17
2023-04-25T15:25:46.379Z,43.86
2023-04-25T15:28:16.093Z,43.75
2023-04-25T15:30:44.457Z,44.22
2023-04-25T15:33:11.329Z,45.02
2023-04-25T15:35:38.374Z,44.81
2023-04-25T15:38:05.396Z,43.60
2023-04-25T15:40:32.310Z,43.88
2023-04-25T15:42:59.784Z,45.25
2023-04-25T15:45:27.061Z,44.08
2023-04-25T15:47:55.893Z,45.39
2023-04-25T15:50:23.424Z,44.83
2023-04-25T15:52:50.744Z,45.01
2023-04-25T15:55:21.786Z,44.53
2023-04-25T15:57:50.088Z,45.27
2023-04-25T16:00:17.880Z,45.07
2023-04-25T16:02:46.385Z,45.39
2023-04-25T16:05:14.625Z,45.14
2023-04-25T16:07:42.948Z,46.15
2023-04-25T16:10:11.350Z,46.31
2023-04-25T16:12:39.602Z,45.34
2023-04-25T16:15:06.872Z,44.51
2023-04-25T16:17:33.859Z,45.14
2023-04-25T16:20:03.131Z,44.57
2023-04-25T16:22:29.809Z,42.67
2023-04-25T16:24:56.373Z,43.11
2023-04-25T16:27:23.037Z,43.69
2023-04-25T16:29:51.406Z,44.70
2023-04-25T16:32:18.131Z,44.94
2023-04-25T16:34:45.273Z,44.33
2023-04-25T16:37:11.882Z,44.27
2023-04-25T16:39:38.558Z,44.64
2023-04-25T16:42:06.007Z,45.04
2023-04-25T16:44:32.646Z,45.04
2023-04-25T16:46:59.650Z,45.17
2023-04-25T16:49:26.579Z,44.72
2023-04-25T16:51:53.293Z,44.38
2023-04-25T16:54:19.924Z,45.73
2023-04-25T16:56:46.628Z,45.72
2023-04-25T16:59:13.240Z,46.43
2023-04-25T17:01:39.897Z,46.96
2023-04-25T17:04:06.738Z,46.79
2023-04-25T17:06:33.619Z,47.22
2023-04-25T17:09:00.631Z,47.66
2023-04-25T17:11:27.428Z,48.77
2023-04-25T17:13:54.126Z,48.17
2023-04-25T17:16:23.230Z,48.84
2023-04-25T17:18:51.516Z,47.52
2023-04-25T17:21:18.516Z,46.97
2023-04-25T17:23:47.977Z,47.33
2023-04-25T17:26:14.771Z,47.65
2023-04-25T17:28:42.297Z,48.44
2023-04-25T17:31:09.930Z,48.68
2023-04-25T17:33:36.641Z,49.24
2023-04-25T17:36:04.279Z,48.91
2023-04-25T17:38:31.690Z,49.38
2023-04-25T17:40:58.897Z,49.28
2023-04-25T17:43:27.718Z,49.72
2023-04-25T17:45:54.745Z,49.86
2023-04-25T17:48:24.428Z,50.25
2023-04-25T17:50:51.561Z,50.31
2023-04-25T17:53:18.208Z,49.97
2023-04-25T17:55:44.946Z,50.09
2023-04-25T17:58:11.762Z,50.66
2023-04-25T18:00:39.270Z,51.03
2023-04-25T18:03:07.224Z,51.02
2023-04-25T18:05:33.966Z,51.07
2023-04-25T18:08:00.917Z,51.27
2023-04-25T18:10:27.778Z,51.42
2023-04-25T18:12:54.517Z,52.02
2023-04-25T18:15:22.156Z,52.17
2023-04-25T18:17:48.938Z,52.10
2023-04-25T18:20:17.004Z,52.31
2023-04-25T18:22:45.352Z,52.64
2023-04-25T18:25:13.484Z,53.00
2023-04-25T18:27:41.180Z,52.99
2023-04-25T18:30:10.681Z,53.94
2023-04-25T18:32:37.872Z,53.40
2023-04-25T18:35:05.264Z,54.06
2023-04-25T18:37:31.881Z,53.64
2023-04-25T18:39:58.772Z,53.70
2023-04-25T18:42:25.609Z,54.27
2023-04-25T18:44:52.495Z,54.30
2023-04-25T18:47:19.148Z,54.15
2023-04-25T18:49:45.963Z,54.71
2023-04-25T18:52:15.278Z,54.24
2023-04-25T18:54:42.714Z,54.00
2023-04-25T18:57:09.610Z,54.35
2023-04-25T18:59:36.438Z,55.07
2023-04-25T19:02:05.293Z,54.63
2023-04-25T19:04:32.685Z,54.78
2023-04-25T19:06:59.814Z,55.46
2023-04-25T19:09:26.505Z,55.40
2023-04-25T19:11:53.234Z,55.47
2023-04-25T19:14:19.826Z,55.44
2023-04-25T19:16:46.694Z,56.01
2023-04-25T19:19:13.526Z,55.73
2023-04-25T19:21:41.685Z,55.63
2023-04-25T19:24:08.722Z,56.09
2023-04-25T19:26:35.596Z,56.07
2023-04-25T19:29:08.054Z,56.74
2023-04-25T19:31:39.127Z,57.29
2023-04-25T19:34:07.066Z,57.66
2023-04-25T19:36:34.090Z,57.35
2023-04-25T19:39:04.534Z,57.62
2023-04-25T19:41:33.528Z,57.80
2023-04-25T19:44:04.641Z,57.83
2023-04-25T19:46:34.330Z,57.07
2023-04-25T19:49:01.647Z,57.95
2023-04-25T19:51:29.129Z,57.74
2023-04-25T19:53:56.106Z,57.51
2023-04-25T19:56:24.505Z,57.78
2023-04-25T19:58:51.699Z,58.13
2023-04-25T20:01:18.978Z,57.80
2023-04-25T20:03:48.333Z,57.67
2023-04-25T20:06:15.064Z,57.85
2023-04-25T20:08:41.688Z,57.49
2023-04-25T20:11:09.247Z,58.17
2023-04-25T20:13:36.033Z,58.12
2023-04-25T20:16:02.939Z,57.81
2023-04-25T20:18:29.730Z,58.24
2023-04-25T20:20:56.678Z,57.86
2023-04-25T20:23:23.389Z,58.38
2023-04-25T20:25:50.576Z,59.24
2023-04-25T20:28:17.518Z,59.38
2023-04-25T20:30:44.840Z,60.52
2023-04-25T20:33:11.566Z,60.99
2023-04-25T20:35:38.245Z,60.89
2023-04-25T20:38:04.981Z,60.82
2023-04-25T20:40:31.849Z,60.77
2023-04-25T20:42:58.554Z,62.20
2023-04-25T20:45:29.937Z,61.33
2023-04-25T20:47:56.846Z,61.71
2023-04-25T20:50:23.846Z,62.56
2023-04-25T20:52:51.168Z,63.56
2023-04-25T20:55:18.117Z,62.67
2023-04-25T20:57:44.806Z,62.54
2023-04-25T21:00:18.590Z,63.31
2023-04-25T21:02:46.844Z,63.23
2023-04-25T21:05:13.954Z,63.32
2023-04-25T21:07:40.725Z,63.03
2023-04-25T21:10:07.754Z,64.56
2023-04-25T21:12:35.603Z,63.29
2023-04-25T21:15:02.478Z,64.51
2023-04-25T21:17:29.240Z,64.02
2023-04-25T21:19:56.343Z,64.14
2023-04-25T21:22:23.276Z,64.39
2023-04-25T21:24:50.800Z,64.91
2023-04-25T21:27:20.586Z,65.05
2023-04-25T21:29:47.260Z,65.49
2023-04-25T21:32:16.914Z,65.09
2023-04-25T21:34:43.709Z,65.31
2023-04-25T21:37:10.898Z,65.19
2023-04-25T21:39:37.519Z,65.44
2023-04-25T21:42:09.007Z,66.15
2023-04-25T21:44:36.309Z,66.17
2023-04-25T21:47:04.717Z,66.27
2023-04-25T21:49:32.915Z,66.30
2023-04-25T21:52:00.164Z,65.25
2023-04-25T21:54:27.203Z,65.13
2023-04-25T21:56:54.112Z,65.62
2023-04-25T21:59:23.661Z,65.48
2023-04-25T22:01:50.474Z,65.31
2023-04-25T22:04:17.347Z,65.24
2023-04-25T22:06:44.340Z,65.00
2023-04-25T22:09:10.990Z,65.53
2023-04-25T22:11:38.153Z,65.44
2023-04-25T22:14:05.037Z,65.20
2023-04-25T22:16:31.700Z,65.34
2023-04-25T22:18:58.493Z,65.69
2023-04-25T22:21:25.290Z,65.48
2023-04-25T22:23:52.859Z,66.26
2023-04-25T22:26:20.558Z,65.95
2023-04-25T22:28:47.202Z,65.72
2023-04-25T22:31:14.384Z,66.60
2023-04-25T22:33:41.457Z,66.03
2023-04-25T22:36:08.965Z,65.74
2023-04-25T22:38:35.986Z,66.66
2023-04-25T22:41:02.595Z,66.84
2023-04-25T22:43:29.471Z,66.73
2023-04-25T22:45:56.959Z,66.45
2023-04-25T22:48:23.650Z,66.77
2023-04-25T22:50:51.179Z,67.21
2023-04-25T22:53:18.593Z,66.59
2023-04-25T22:55:45.243Z,66.85
2023-04-25T22:58:12.595Z,66.67
2023-04-25T23:00:39.345Z,66.95
2023-04-25T23:03:06.293Z,67.04
2023-04-25T23:05:33.259Z,67.99
2023-04-25T23:08:00.076Z,68.06
2023-04-25T23:10:28.480Z,67.92
2023-04-25T23:12:58.045Z,68.29
2023-04-25T23:15:27.590Z,69.17
2023-04-25T23:17:54.156Z,68.46
2023-04-25T23:20:21.144Z,68.38
2023-04-25T23:22:47.997Z,68.95
2023-04-25T23:25:15.017Z,68.39
2023-04-25T23:27:41.791Z,68.04
2023-04-25T23:30:09.233Z,68.10
2023-04-25T23:32:36.492Z,68.02
2023-04-25T23:35:04.967Z,68.11
2023-04-25T23:37:37.210Z,67.48
2023-04-25T23:40:12.501Z,68.01
2023-04-25T23:42:41.109Z,68.72
2023-04-25T23:45:08.859Z,68.53
2023-04-25T23:47:36.106Z,69.10
2023-04-25T23:50:03.889Z,68.27
2023-04-25T23:52:30.574Z,69.64
2023-04-25T23:54:57.523Z,68.58
2023-04-25T23:57:24.158Z,69.68
2023-04-25T23:59:50.943Z,69.46
